sensor_id;sensor_type;location;lat;lon;timestamp;P1;durP1;ratioP1;P2;durP2;ratioP2
23490;SDS011;14683;50.038;8.078;2022-10-16T04:01:42;8.82;;;5.75;;
23490;SDS011;14683;50.038;8.078;2022-10-16T04:06:34;9.27;;;6.45;;
23490;SDS011;14683;50.038;8.078;2022-10-16T04:09:00;7.53;;;6.53;;
23490;SDS011;14683;50.038;8.078;2022-10-16T04:11:26;7.03;;;6.22;;
23490;SDS011;14683;50.038;8.078;2022-10-16T04:13:53;6.72;;;6.10;;
23490;SDS011;14683;50.038;8.078;2022-10-16T04:16:18;8.98;;;6.00;;
23490;SDS011;14683;50.038;8.078;2022-10-16T04:18:45;8.20;;;6.28;;
23490;SDS011;14683;50.038;8.078;2022-10-16T04:21:11;7.32;;;6.13;;
23490;SDS011;14683;50.038;8.078;2022-10-16T04:23:37;9.95;;;6.78;;
23490;SDS011;14683;50.038;8.078;2022-10-16T04:26:03;10.18;;;7.07;;
23490;SDS011;14683;50.038;8.078;2022-10-16T04:30:55;7.63;;;6.50;;
23490;SDS011;14683;50.038;8.078;2022-10-16T04:33:21;7.85;;;6.95;;
23490;SDS011;14683;50.038;8.078;2022-10-16T04:35:47;6.68;;;5.97;;
23490;SDS011;14683;50.038;8.078;2022-10-16T04:38:13;9.85;;;6.13;;
23490;SDS011;14683;50.038;8.078;2022-10-16T04:40:41;8.82;;;6.15;;
23490;SDS011;14683;50.038;8.078;2022-10-16T04:43:07;6.85;;;6.18;;
23490;SDS011;14683;50.038;8.078;2022-10-16T04:45:33;9.63;;;6.55;;
23490;SDS011;14683;50.038;8.078;2022-10-16T04:47:59;8.05;;;5.07;;
23490;SDS011;14683;50.038;8.078;2022-10-16T04:50:26;9.55;;;5.40;;
23490;SDS011;14683;50.038;8.078;2022-10-16T04:53:05;11.98;;;5.07;;
23490;SDS011;14683;50.038;8.078;2022-10-16T04:55:31;6.97;;;4.78;;
23490;SDS011;14683;50.038;8.078;2022-10-16T04:57:57;8.13;;;4.35;;
23490;SDS011;14683;50.038;8.078;2022-10-16T05:00:23;5.20;;;4.70;;
23490;SDS011;14683;50.038;8.078;2022-10-16T05:02:50;5.97;;;4.55;;
23490;SDS011;14683;50.038;8.078;2022-10-16T05:05:16;5.63;;;4.40;;
23490;SDS011;14683;50.038;8.078;2022-10-16T05:07:45;5.45;;;4.95;;
23490;SDS011;14683;50.038;8.078;2022-10-16T05:10:11;5.07;;;4.35;;
23490;SDS011;14683;50.038;8.078;2022-10-16T05:12:37;6.10;;;4.68;;
23490;SDS011;14683;50.038;8.078;2022-10-16T05:15:03;4.97;;;4.43;;
23490;SDS011;14683;50.038;8.078;2022-10-16T05:17:30;5.10;;;4.55;;
23490;SDS011;14683;50.038;8.078;2022-10-16T05:19:56;5.43;;;4.38;;
23490;SDS011;14683;50.038;8.078;2022-10-16T05:22:22;4.78;;;4.38;;
23490;SDS011;14683;50.038;8.078;2022-10-16T05:24:48;5.20;;;4.70;;
23490;SDS011;14683;50.038;8.078;2022-10-16T05:27:14;7.20;;;4.55;;
23490;SDS011;14683;50.038;8.078;2022-10-16T05:29:48;5.70;;;4.50;;
23490;SDS011;14683;50.038;8.078;2022-10-16T05:32:14;4.35;;;3.85;;
23490;SDS011;14683;50.038;8.078;2022-10-16T05:34:41;4.95;;;3.92;;
23490;SDS011;14683;50.038;8.078;2022-10-16T05:37:07;5.65;;;3.80;;
23490;SDS011;14683;50.038;8.078;2022-10-16T05:41:59;5.00;;;3.97;;
23490;SDS011;14683;50.038;8.078;2022-10-16T05:44:25;4.45;;;3.63;;
23490;SDS011;14683;50.038;8.078;2022-10-16T05:46:51;5.28;;;4.00;;
23490;SDS011;14683;50.038;8.078;2022-10-16T05:49:17;5.20;;;3.58;;
23490;SDS011;14683;50.038;8.078;2022-10-16T05:51:43;5.53;;;3.80;;
23490;SDS011;14683;50.038;8.078;2022-10-16T05:54:09;3.80;;;3.50;;
23490;SDS011;14683;50.038;8.078;2022-10-16T05:56:35;11.57;;;4.13;;
23490;SDS011;14683;50.038;8.078;2022-10-16T05:59:02;6.43;;;3.88;;
23490;SDS011;14683;50.038;8.078;2022-10-16T06:01:29;3.97;;;3.40;;
23490;SDS011;14683;50.038;8.078;2022-10-16T06:03:56;3.40;;;3.15;;
23490;SDS011;14683;50.038;8.078;2022-10-16T06:08:52;4.68;;;3.33;;
23490;SDS011;14683;50.038;8.078;2022-10-16T06:11:20;3.55;;;3.25;;
23490;SDS011;14683;50.038;8.078;2022-10-16T06:13:54;10.98;;;8.98;;
23490;SDS011;14683;50.038;8.078;2022-10-16T06:16:24;6.43;;;4.10;;
23490;SDS011;14683;50.038;8.078;2022-10-16T06:18:52;4.40;;;3.60;;
23490;SDS011;14683;50.038;8.078;2022-10-16T06:21:20;5.50;;;2.80;;
23490;SDS011;14683;50.038;8.078;2022-10-16T06:23:48;3.53;;;3.22;;
23490;SDS011;14683;50.038;8.078;2022-10-16T06:26:15;3.60;;;3.30;;
23490;SDS011;14683;50.038;8.078;2022-10-16T06:28:42;5.93;;;4.07;;
23490;SDS011;14683;50.038;8.078;2022-10-16T06:31:09;4.60;;;2.95;;
23490;SDS011;14683;50.038;8.078;2022-10-16T06:33:36;5.28;;;3.22;;
23490;SDS011;14683;50.038;8.078;2022-10-16T06:36:03;3.75;;;3.35;;
23490;SDS011;14683;50.038;8.078;2022-10-16T06:38:37;5.05;;;3.78;;
23490;SDS011;14683;50.038;8.078;2022-10-16T06:41:04;4.22;;;3.65;;
23490;SDS011;14683;50.038;8.078;2022-10-16T06:43:30;3.78;;;3.08;;
23490;SDS011;14683;50.038;8.078;2022-10-16T06:46:03;3.75;;;3.35;;
23490;SDS011;14683;50.038;8.078;2022-10-16T06:48:31;5.40;;;3.30;;
23490;SDS011;14683;50.038;8.078;2022-10-16T06:51:01;4.43;;;2.95;;
23490;SDS011;14683;50.038;8.078;2022-10-16T06:53:29;5.03;;;3.55;;
23490;SDS011;14683;50.038;8.078;2022-10-16T06:55:56;3.75;;;3.45;;
23490;SDS011;14683;50.038;8.078;2022-10-16T06:58:23;6.97;;;3.30;;
23490;SDS011;14683;50.038;8.078;2022-10-16T07:00:54;5.55;;;3.38;;
23490;SDS011;14683;50.038;8.078;2022-10-16T07:03:21;3.22;;;3.03;;
23490;SDS011;14683;50.038;8.078;2022-10-16T07:05:47;7.35;;;2.97;;
23490;SDS011;14683;50.038;8.078;2022-10-16T07:08:14;5.90;;;3.00;;
23490;SDS011;14683;50.038;8.078;2022-10-16T07:10:40;5.22;;;2.80;;
23490;SDS011;14683;50.038;8.078;2022-10-16T07:13:06;3.17;;;2.90;;
23490;SDS011;14683;50.038;8.078;2022-10-16T07:15:33;5.32;;;3.28;;
23490;SDS011;14683;50.038;8.078;2022-10-16T07:20:25;4.53;;;2.90;;
23490;SDS011;14683;50.038;8.078;2022-10-16T07:22:51;4.13;;;2.90;;
23490;SDS011;14683;50.038;8.078;2022-10-16T07:25:17;3.30;;;2.67;;
23490;SDS011;14683;50.038;8.078;2022-10-16T07:27:43;4.75;;;2.70;;
23490;SDS011;14683;50.038;8.078;2022-10-16T07:30:09;3.17;;;2.58;;
23490;SDS011;14683;50.038;8.078;2022-10-16T07:32:35;2.95;;;2.72;;
23490;SDS011;14683;50.038;8.078;2022-10-16T07:35:01;3.80;;;2.78;;
23490;SDS011;14683;50.038;8.078;2022-10-16T07:37:27;5.07;;;4.57;;
23490;SDS011;14683;50.038;8.078;2022-10-16T07:39:53;10.45;;;6.63;;
23490;SDS011;14683;50.038;8.078;2022-10-16T07:42:19;21.10;;;14.30;;
23490;SDS011;14683;50.038;8.078;2022-10-16T07:44:45;13.10;;;9.80;;
23490;SDS011;14683;50.038;8.078;2022-10-16T07:47:12;8.40;;;6.82;;
23490;SDS011;14683;50.038;8.078;2022-10-16T07:49:38;5.55;;;5.00;;
23490;SDS011;14683;50.038;8.078;2022-10-16T07:52:04;3.83;;;3.50;;
23490;SDS011;14683;50.038;8.078;2022-10-16T07:54:30;5.53;;;3.90;;
23490;SDS011;14683;50.038;8.078;2022-10-16T07:56:56;4.97;;;4.03;;
23490;SDS011;14683;50.038;8.078;2022-10-16T07:59:22;5.20;;;4.55;;
23490;SDS011;14683;50.038;8.078;2022-10-16T08:01:48;5.40;;;3.67;;
23490;SDS011;14683;50.038;8.078;2022-10-16T08:04:15;5.22;;;4.07;;
23490;SDS011;14683;50.038;8.078;2022-10-16T08:06:41;3.53;;;3.22;;
23490;SDS011;14683;50.038;8.078;2022-10-16T08:09:07;3.75;;;3.40;;
23490;SDS011;14683;50.038;8.078;2022-10-16T08:11:33;3.80;;;3.40;;
23490;SDS011;14683;50.038;8.078;2022-10-16T08:13:59;5.95;;;3.50;;
23490;SDS011;14683;50.038;8.078;2022-10-16T08:16:25;5.28;;;3.25;;
23490;SDS011;14683;50.038;8.078;2022-10-16T08:18:51;7.88;;;3.55;;
23490;SDS011;14683;50.038;8.078;2022-10-16T08:21:19;8.43;;;3.50;;
23490;SDS011;14683;50.038;8.078;2022-10-16T08:23:46;4.65;;;2.92;;
23490;SDS011;14683;50.038;8.078;2022-10-16T08:33:49;7.43;;;0.80;;
23490;SDS011;14683;50.038;8.078;2022-10-16T08:52:32;4.47;;;2.17;;
23490;SDS011;14683;50.038;8.078;2022-10-16T08:55:00;43.75;;;2.28;;
23490;SDS011;14683;50.038;8.078;2022-10-16T08:57:27;7.00;;;1.90;;
23490;SDS011;14683;50.038;8.078;2022-10-16T09:01:54;7.63;;;1.73;;
23490;SDS011;14683;50.038;8.078;2022-10-16T09:07:35;5.22;;;2.20;;
23490;SDS011;14683;50.038;8.078;2022-10-16T09:12:56;5.82;;;3.08;;
23490;SDS011;14683;50.038;8.078;2022-10-16T09:23:34;7.40;;;4.03;;
23490;SDS011;14683;50.038;8.078;2022-10-16T09:26:01;9.95;;;4.85;;
23490;SDS011;14683;50.038;8.078;2022-10-16T09:28:28;9.88;;;5.53;;
23490;SDS011;14683;50.038;8.078;2022-10-16T09:30:54;5.93;;;4.90;;
23490;SDS011;14683;50.038;8.078;2022-10-16T09:33:21;6.10;;;4.55;;
23490;SDS011;14683;50.038;8.078;2022-10-16T09:35:50;8.93;;;4.70;;
23490;SDS011;14683;50.038;8.078;2022-10-16T09:38:36;4.18;;;3.80;;
23490;SDS011;14683;50.038;8.078;2022-10-16T09:41:10;5.18;;;3.80;;
23490;SDS011;14683;50.038;8.078;2022-10-16T09:44:00;4.43;;;3.78;;
23490;SDS011;14683;50.038;8.078;2022-10-16T09:46:29;3.60;;;3.40;;
23490;SDS011;14683;50.038;8.078;2022-10-16T09:49:02;3.60;;;3.30;;
23490;SDS011;14683;50.038;8.078;2022-10-16T09:51:34;3.60;;;3.00;;
23490;SDS011;14683;50.038;8.078;2022-10-16T09:56:34;5.22;;;2.92;;
23490;SDS011;14683;50.038;8.078;2022-10-16T09:59:10;3.17;;;2.47;;
23490;SDS011;14683;50.038;8.078;2022-10-16T10:01:38;2.22;;;2.10;;
23490;SDS011;14683;50.038;8.078;2022-10-16T10:04:06;3.22;;;2.80;;
23490;SDS011;14683;50.038;8.078;2022-10-16T10:06:33;5.72;;;2.72;;
23490;SDS011;14683;50.038;8.078;2022-10-16T10:09:13;4.65;;;3.47;;
23490;SDS011;14683;50.038;8.078;2022-10-16T10:11:49;3.30;;;3.00;;
23490;SDS011;14683;50.038;8.078;2022-10-16T10:14:47;4.55;;;2.92;;
23490;SDS011;14683;50.038;8.078;2022-10-16T10:17:16;3.53;;;3.15;;
23490;SDS011;14683;50.038;8.078;2022-10-16T10:19:53;4.47;;;3.00;;
23490;SDS011;14683;50.038;8.078;2022-10-16T10:27:38;5.60;;;3.28;;
23490;SDS011;14683;50.038;8.078;2022-10-16T10:33:28;4.53;;;2.30;;
23490;SDS011;14683;50.038;8.078;2022-10-16T10:47:24;5.65;;;1.38;;
23490;SDS011;14683;50.038;8.078;2022-10-16T10:50:01;2.95;;;1.65;;
23490;SDS011;14683;50.038;8.078;2022-10-16T11:01:09;3.72;;;1.88;;
23490;SDS011;14683;50.038;8.078;2022-10-16T11:06:07;2.25;;;2.13;;
23490;SDS011;14683;50.038;8.078;2022-10-16T11:08:43;4.43;;;2.55;;
23490;SDS011;14683;50.038;8.078;2022-10-16T11:11:20;3.75;;;3.13;;
23490;SDS011;14683;50.038;8.078;2022-10-16T11:19:12;2.78;;;2.58;;
23490;SDS011;14683;50.038;8.078;2022-10-16T11:21:44;3.95;;;2.70;;
23490;SDS011;14683;50.038;8.078;2022-10-16T11:24:22;4.20;;;2.75;;
23490;SDS011;14683;50.038;8.078;2022-10-16T11:26:51;7.63;;;2.70;;
23490;SDS011;14683;50.038;8.078;2022-10-16T11:29:21;7.63;;;2.83;;
23490;SDS011;14683;50.038;8.078;2022-10-16T11:31:52;3.78;;;2.45;;
23490;SDS011;14683;50.038;8.078;2022-10-16T11:36:47;6.25;;;2.58;;
23490;SDS011;14683;50.038;8.078;2022-10-16T11:44:48;2.70;;;2.25;;
23490;SDS011;14683;50.038;8.078;2022-10-16T11:47:24;3.00;;;2.67;;
23490;SDS011;14683;50.038;8.078;2022-10-16T11:49:57;6.03;;;2.42;;
23490;SDS011;14683;50.038;8.078;2022-10-16T11:52:27;2.83;;;2.33;;
23490;SDS011;14683;50.038;8.078;2022-10-16T11:55:13;2.90;;;2.70;;
23490;SDS011;14683;50.038;8.078;2022-10-16T11:57:46;3.95;;;2.70;;
23490;SDS011;14683;50.038;8.078;2022-10-16T12:00:22;5.07;;;3.15;;
23490;SDS011;14683;50.038;8.078;2022-10-16T12:08:36;3.00;;;2.45;;
23490;SDS011;14683;50.038;8.078;2022-10-16T12:11:19;2.95;;;2.72;;
23490;SDS011;14683;50.038;8.078;2022-10-16T12:13:46;2.28;;;2.17;;
23490;SDS011;14683;50.038;8.078;2022-10-16T12:18:40;4.80;;;2.80;;
23490;SDS011;14683;50.038;8.078;2022-10-16T12:21:07;4.25;;;2.60;;
23490;SDS011;14683;50.038;8.078;2022-10-16T12:23:37;4.97;;;4.57;;
23490;SDS011;14683;50.038;8.078;2022-10-16T12:26:04;9.73;;;8.60;;
23490;SDS011;14683;50.038;8.078;2022-10-16T12:28:31;3.50;;;2.90;;
23490;SDS011;14683;50.038;8.078;2022-10-16T12:31:05;2.60;;;2.40;;
23490;SDS011;14683;50.038;8.078;2022-10-16T12:33:33;3.65;;;2.42;;
23490;SDS011;14683;50.038;8.078;2022-10-16T12:36:01;4.30;;;3.00;;
23490;SDS011;14683;50.038;8.078;2022-10-16T12:41:11;2.92;;;2.72;;
23490;SDS011;14683;50.038;8.078;2022-10-16T12:43:40;4.30;;;2.33;;
23490;SDS011;14683;50.038;8.078;2022-10-16T12:48:33;2.42;;;2.22;;
23490;SDS011;14683;50.038;8.078;2022-10-16T13:16:19;4.30;;;2.10;;
23490;SDS011;14683;50.038;8.078;2022-10-16T13:30:33;2.38;;;1.90;;
23490;SDS011;14683;50.038;8.078;2022-10-16T13:35:45;2.20;;;2.10;;
23490;SDS011;14683;50.038;8.078;2022-10-16T13:43:24;1.95;;;1.85;;
23490;SDS011;14683;50.038;8.078;2022-10-16T13:48:24;2.35;;;1.92;;
23490;SDS011;14683;50.038;8.078;2022-10-16T13:53:27;1.92;;;1.83;;
23490;SDS011;14683;50.038;8.078;2022-10-16T13:55:53;2.45;;;1.80;;
23490;SDS011;14683;50.038;8.078;2022-10-16T13:58:19;2.97;;;1.70;;
23490;SDS011;14683;50.038;8.078;2022-10-16T14:01:04;4.70;;;1.95;;
23490;SDS011;14683;50.038;8.078;2022-10-16T14:03:37;2.13;;;1.98;;
23490;SDS011;14683;50.038;8.078;2022-10-16T14:06:04;2.28;;;2.08;;
23490;SDS011;14683;50.038;8.078;2022-10-16T14:08:34;2.13;;;1.90;;
23490;SDS011;14683;50.038;8.078;2022-10-16T14:11:00;2.08;;;1.98;;
23490;SDS011;14683;50.038;8.078;2022-10-16T14:13:29;3.10;;;2.17;;
23490;SDS011;14683;50.038;8.078;2022-10-16T14:15:57;2.10;;;1.98;;
23490;SDS011;14683;50.038;8.078;2022-10-16T14:18:26;2.10;;;2.00;;
23490;SDS011;14683;50.038;8.078;2022-10-16T14:20:53;7.10;;;1.75;;
23490;SDS011;14683;50.038;8.078;2022-10-16T14:23:23;2.05;;;1.85;;
23490;SDS011;14683;50.038;8.078;2022-10-16T14:26:05;4.30;;;2.10;;
23490;SDS011;14683;50.038;8.078;2022-10-16T14:28:42;2.80;;;1.90;;
23490;SDS011;14683;50.038;8.078;2022-10-16T14:33:44;2.47;;;2.00;;
23490;SDS011;14683;50.038;8.078;2022-10-16T14:38:38;4.13;;;2.10;;
23490;SDS011;14683;50.038;8.078;2022-10-16T14:41:05;3.22;;;2.20;;
23490;SDS011;14683;50.038;8.078;2022-10-16T14:45:59;2.42;;;2.22;;
23490;SDS011;14683;50.038;8.078;2022-10-16T14:48:25;2.88;;;1.85;;
23490;SDS011;14683;50.038;8.078;2022-10-16T14:50:51;4.78;;;1.85;;
23490;SDS011;14683;50.038;8.078;2022-10-16T14:53:17;4.20;;;1.95;;
23490;SDS011;14683;50.038;8.078;2022-10-16T14:55:43;3.63;;;2.20;;
23490;SDS011;14683;50.038;8.078;2022-10-16T15:00:42;2.50;;;2.30;;
23490;SDS011;14683;50.038;8.078;2022-10-16T15:03:08;2.70;;;2.50;;
23490;SDS011;14683;50.038;8.078;2022-10-16T15:05:34;2.70;;;2.42;;
23490;SDS011;14683;50.038;8.078;2022-10-16T15:08:00;3.92;;;2.50;;
23490;SDS011;14683;50.038;8.078;2022-10-16T15:10:27;3.53;;;2.60;;
23490;SDS011;14683;50.038;8.078;2022-10-16T15:12:54;2.83;;;2.63;;
23490;SDS011;14683;50.038;8.078;2022-10-16T15:17:53;6.15;;;4.07;;
23490;SDS011;14683;50.038;8.078;2022-10-16T15:20:25;12.43;;;8.05;;
23490;SDS011;14683;50.038;8.078;2022-10-16T15:22:53;9.18;;;6.88;;
23490;SDS011;14683;50.038;8.078;2022-10-16T15:27:48;5.13;;;4.45;;
23490;SDS011;14683;50.038;8.078;2022-10-16T15:30:14;7.63;;;4.00;;
23490;SDS011;14683;50.038;8.078;2022-10-16T15:32:40;4.97;;;4.05;;
23490;SDS011;14683;50.038;8.078;2022-10-16T15:35:08;7.20;;;5.28;;
23490;SDS011;14683;50.038;8.078;2022-10-16T15:37:34;9.48;;;4.40;;
23490;SDS011;14683;50.038;8.078;2022-10-16T15:40:00;7.57;;;3.88;;
23490;SDS011;14683;50.038;8.078;2022-10-16T15:42:26;6.60;;;4.70;;
23490;SDS011;14683;50.038;8.078;2022-10-16T15:44:52;9.30;;;5.35;;
23490;SDS011;14683;50.038;8.078;2022-10-16T15:47:18;5.57;;;4.00;;
23490;SDS011;14683;50.038;8.078;2022-10-16T15:49:44;5.68;;;3.72;;
23490;SDS011;14683;50.038;8.078;2022-10-16T15:52:11;5.82;;;4.05;;
23490;SDS011;14683;50.038;8.078;2022-10-16T15:54:37;8.70;;;4.50;;
23490;SDS011;14683;50.038;8.078;2022-10-16T15:57:03;6.07;;;3.63;;
23490;SDS011;14683;50.038;8.078;2022-10-16T15:59:29;4.43;;;3.88;;
23490;SDS011;14683;50.038;8.078;2022-10-16T16:01:55;4.80;;;3.80;;
23490;SDS011;14683;50.038;8.078;2022-10-16T16:04:21;5.20;;;3.63;;
23490;SDS011;14683;50.038;8.078;2022-10-16T16:06:47;7.65;;;4.07;;
23490;SDS011;14683;50.038;8.078;2022-10-16T16:09:14;8.60;;;3.88;;
23490;SDS011;14683;50.038;8.078;2022-10-16T16:14:06;5.45;;;4.95;;
23490;SDS011;14683;50.038;8.078;2022-10-16T16:16:32;8.35;;;7.53;;
23490;SDS011;14683;50.038;8.078;2022-10-16T16:19:04;10.82;;;6.68;;
23490;SDS011;14683;50.038;8.078;2022-10-16T16:21:32;9.15;;;6.32;;
23490;SDS011;14683;50.038;8.078;2022-10-16T16:23:59;9.75;;;7.22;;
23490;SDS011;14683;50.038;8.078;2022-10-16T16:26:26;9.43;;;6.15;;
23490;SDS011;14683;50.038;8.078;2022-10-16T16:28:56;8.00;;;4.70;;
23490;SDS011;14683;50.038;8.078;2022-10-16T16:31:29;12.88;;;4.70;;
23490;SDS011;14683;50.038;8.078;2022-10-16T16:33:56;5.53;;;4.55;;
23490;SDS011;14683;50.038;8.078;2022-10-16T16:36:23;10.20;;;4.47;;
23490;SDS011;14683;50.038;8.078;2022-10-16T16:38:50;13.02;;;8.57;;
23490;SDS011;14683;50.038;8.078;2022-10-16T16:41:17;8.82;;;7.47;;
23490;SDS011;14683;50.038;8.078;2022-10-16T16:43:48;7.15;;;4.35;;
23490;SDS011;14683;50.038;8.078;2022-10-16T16:46:16;8.63;;;5.85;;
23490;SDS011;14683;50.038;8.078;2022-10-16T16:48:43;5.72;;;5.00;;
23490;SDS011;14683;50.038;8.078;2022-10-16T16:51:11;8.27;;;6.78;;
23490;SDS011;14683;50.038;8.078;2022-10-16T16:53:42;28.75;;;17.92;;
23490;SDS011;14683;50.038;8.078;2022-10-16T16:56:08;59.13;;;33.65;;
23490;SDS011;14683;50.038;8.078;2022-10-16T16:58:34;35.65;;;22.67;;
23490;SDS011;14683;50.038;8.078;2022-10-16T17:01:01;68.15;;;43.53;;
23490;SDS011;14683;50.038;8.078;2022-10-16T17:03:31;39.58;;;29.20;;
23490;SDS011;14683;50.038;8.078;2022-10-16T17:05:59;25.15;;;17.05;;
23490;SDS011;14683;50.038;8.078;2022-10-16T17:08:35;12.40;;;8.93;;
23490;SDS011;14683;50.038;8.078;2022-10-16T17:11:02;14.40;;;8.00;;
23490;SDS011;14683;50.038;8.078;2022-10-16T17:13:31;12.43;;;9.27;;
23490;SDS011;14683;50.038;8.078;2022-10-16T17:16:00;17.67;;;11.75;;
23490;SDS011;14683;50.038;8.078;2022-10-16T17:20:52;10.50;;;6.13;;
23490;SDS011;14683;50.038;8.078;2022-10-16T17:23:18;9.98;;;6.88;;
23490;SDS011;14683;50.038;8.078;2022-10-16T17:25:45;9.70;;;5.85;;
23490;SDS011;14683;50.038;8.078;2022-10-16T17:28:11;8.63;;;6.32;;
23490;SDS011;14683;50.038;8.078;2022-10-16T17:30:39;8.10;;;5.82;;
23490;SDS011;14683;50.038;8.078;2022-10-16T17:33:06;8.38;;;5.90;;
23490;SDS011;14683;50.038;8.078;2022-10-16T17:35:39;7.95;;;6.40;;
23490;SDS011;14683;50.038;8.078;2022-10-16T17:38:07;8.50;;;6.35;;
23490;SDS011;14683;50.038;8.078;2022-10-16T17:40:33;9.40;;;6.65;;
23490;SDS011;14683;50.038;8.078;2022-10-16T17:42:59;8.55;;;7.05;;
23490;SDS011;14683;50.038;8.078;2022-10-16T17:45:26;13.48;;;6.70;;
23490;SDS011;14683;50.038;8.078;2022-10-16T17:47:52;9.40;;;7.00;;
23490;SDS011;14683;50.038;8.078;2022-10-16T17:52:44;12.30;;;7.07;;
23490;SDS011;14683;50.038;8.078;2022-10-16T17:55:10;14.07;;;9.15;;
23490;SDS011;14683;50.038;8.078;2022-10-16T17:57:37;22.33;;;13.38;;
23490;SDS011;14683;50.038;8.078;2022-10-16T18:00:03;14.52;;;10.15;;
23490;SDS011;14683;50.038;8.078;2022-10-16T18:02:30;16.88;;;9.45;;
23490;SDS011;14683;50.038;8.078;2022-10-16T18:07:22;16.88;;;8.63;;
23490;SDS011;14683;50.038;8.078;2022-10-16T18:09:48;10.93;;;7.60;;
23490;SDS011;14683;50.038;8.078;2022-10-16T18:12:14;9.88;;;8.45;;
23490;SDS011;14683;50.038;8.078;2022-10-16T18:14:40;9.70;;;8.27;;
23490;SDS011;14683;50.038;8.078;2022-10-16T18:17:07;9.55;;;8.32;;
23490;SDS011;14683;50.038;8.078;2022-10-16T18:19:33;11.77;;;9.25;;
23490;SDS011;14683;50.038;8.078;2022-10-16T18:21:59;12.63;;;8.98;;
23490;SDS011;14683;50.038;8.078;2022-10-16T18:24:25;15.95;;;9.38;;
23490;SDS011;14683;50.038;8.078;2022-10-16T18:29:21;15.73;;;11.95;;
23490;SDS011;14683;50.038;8.078;2022-10-16T18:31:48;17.00;;;13.70;;
23490;SDS011;14683;50.038;8.078;2022-10-16T18:34:14;14.48;;;10.77;;
23490;SDS011;14683;50.038;8.078;2022-10-16T18:36:40;12.68;;;10.07;;
23490;SDS011;14683;50.038;8.078;2022-10-16T18:39:10;13.75;;;10.70;;
23490;SDS011;14683;50.038;8.078;2022-10-16T18:41:37;13.13;;;9.80;;
23490;SDS011;14683;50.038;8.078;2022-10-16T18:44:04;14.43;;;9.95;;
23490;SDS011;14683;50.038;8.078;2022-10-16T18:46:31;14.50;;;11.43;;
23490;SDS011;14683;50.038;8.078;2022-10-16T18:48:57;18.70;;;10.75;;
23490;SDS011;14683;50.038;8.078;2022-10-16T18:51:26;15.80;;;11.20;;
23490;SDS011;14683;50.038;8.078;2022-10-16T18:53:54;14.45;;;11.10;;
23490;SDS011;14683;50.038;8.078;2022-10-16T18:56:22;18.80;;;12.55;;
23490;SDS011;14683;50.038;8.078;2022-10-16T18:58:49;17.17;;;11.00;;
23490;SDS011;14683;50.038;8.078;2022-10-16T19:01:22;16.30;;;11.85;;
23490;SDS011;14683;50.038;8.078;2022-10-16T19:03:52;18.15;;;11.68;;
23490;SDS011;14683;50.038;8.078;2022-10-16T19:06:20;19.75;;;12.27;;
23490;SDS011;14683;50.038;8.078;2022-10-16T19:08:46;16.15;;;11.85;;
23490;SDS011;14683;50.038;8.078;2022-10-16T19:11:16;13.50;;;11.55;;
23490;SDS011;14683;50.038;8.078;2022-10-16T19:13:44;19.05;;;12.40;;
23490;SDS011;14683;50.038;8.078;2022-10-16T19:16:13;18.75;;;12.18;;
23490;SDS011;14683;50.038;8.078;2022-10-16T19:18:40;16.77;;;11.07;;
23490;SDS011;14683;50.038;8.078;2022-10-16T19:21:07;16.20;;;11.85;;
23490;SDS011;14683;50.038;8.078;2022-10-16T19:23:35;15.63;;;10.80;;
23490;SDS011;14683;50.038;8.078;2022-10-16T19:28:31;22.73;;;11.32;;
23490;SDS011;14683;50.038;8.078;2022-10-16T19:30:59;16.83;;;12.00;;
23490;SDS011;14683;50.038;8.078;2022-10-16T19:33:26;18.35;;;10.93;;
23490;SDS011;14683;50.038;8.078;2022-10-16T19:35:52;20.70;;;10.95;;
23490;SDS011;14683;50.038;8.078;2022-10-16T19:38:18;17.15;;;10.65;;
23490;SDS011;14683;50.038;8.078;2022-10-16T19:40:45;22.35;;;11.23;;
23490;SDS011;14683;50.038;8.078;2022-10-16T19:43:11;19.63;;;11.07;;
23490;SDS011;14683;50.038;8.078;2022-10-16T19:45:37;21.02;;;11.68;;
23490;SDS011;14683;50.038;8.078;2022-10-16T19:48:03;20.08;;;11.23;;
23490;SDS011;14683;50.038;8.078;2022-10-16T19:50:29;28.67;;;16.38;;
23490;SDS011;14683;50.038;8.078;2022-10-16T19:52:55;30.45;;;17.45;;
23490;SDS011;14683;50.038;8.078;2022-10-16T19:55:21;24.77;;;17.10;;
23490;SDS011;14683;50.038;8.078;2022-10-16T20:00:13;26.67;;;14.82;;
23490;SDS011;14683;50.038;8.078;2022-10-16T20:02:39;16.50;;;14.07;;
23490;SDS011;14683;50.038;8.078;2022-10-16T20:05:05;20.67;;;12.98;;
23490;SDS011;14683;50.038;8.078;2022-10-16T20:09:57;23.80;;;13.40;;
23490;SDS011;14683;50.038;8.078;2022-10-16T20:12:23;17.95;;;12.40;;
23490;SDS011;14683;50.038;8.078;2022-10-16T20:14:49;23.00;;;12.77;;
23490;SDS011;14683;50.038;8.078;2022-10-16T20:17:15;24.95;;;12.98;;
23490;SDS011;14683;50.038;8.078;2022-10-16T20:19:41;21.00;;;12.07;;
23490;SDS011;14683;50.038;8.078;2022-10-16T20:22:07;22.75;;;12.60;;
23490;SDS011;14683;50.038;8.078;2022-10-16T20:24:33;15.15;;;11.25;;
23490;SDS011;14683;50.038;8.078;2022-10-16T20:26:59;16.17;;;11.48;;
23490;SDS011;14683;50.038;8.078;2022-10-16T20:29:25;14.05;;;11.13;;
23490;SDS011;14683;50.038;8.078;2022-10-16T20:31:51;20.00;;;11.55;;
23490;SDS011;14683;50.038;8.078;2022-10-16T20:34:17;18.17;;;11.40;;
23490;SDS011;14683;50.038;8.078;2022-10-16T20:36:43;22.35;;;12.48;;
23490;SDS011;14683;50.038;8.078;2022-10-16T20:39:11;19.67;;;11.75;;
23490;SDS011;14683;50.038;8.078;2022-10-16T20:41:38;23.20;;;11.85;;
23490;SDS011;14683;50.038;8.078;2022-10-16T20:44:04;17.27;;;12.70;;
